Time;durP1;ratioP1;P1;durP2;ratioP2;P2;SDS_P1;SDS_P2;PMS_P1;PMS_P2;Temp;Humidity;BMP_temperature;BMP_pressure;BME280_temperature;BME280_humidity;BME280_pressure;Samples;Min_cycle;Max_cycle;Signal;HPM_P1;HPM_P2
2021/12/26 00:00:25;;;;;;;;;30.67;28.67;;;;;;;;5095214;27;46271;-49
2021/12/26 00:02:50;;;;;;;;;30.67;25.00;;;;;;;;5096469;27;45488;-51
2021/12/26 00:05:16;;;;;;;;;27.67;27.67;;;;;;;;5096138;27;45606;-48
2021/12/26 00:07:42;;;;;;;;;22.33;22.33;;;;;;;;5095646;27;45491;-52
2021/12/26 00:10:09;;;;;;;;;26.67;22.00;;;;;;;;5096736;27;45912;-51
2021/12/26 00:12:34;;;;;;;;;24.67;24.67;;;;;;;;5095188;27;45576;-49
2021/12/26 00:14:59;;;;;;;;;24.33;22.67;;;;;;;;5095190;27;45450;-48
2021/12/26 00:17:24;;;;;;;;;30.67;28.00;;;;;;;;5096036;27;45433;-46
2021/12/26 00:19:50;;;;;;;;;34.25;33.00;;;;;;;;5098384;27;45413;-51
2021/12/26 00:22:15;;;;;;;;;30.00;27.67;;;;;;;;5100252;27;45294;-48
2021/12/26 00:24:40;;;;;;;;;27.33;25.67;;;;;;;;5098845;27;45463;-46
2021/12/26 00:27:06;;;;;;;;;27.33;26.00;;;;;;;;5098846;27;45595;-48
2021/12/26 00:29:31;;;;;;;;;28.00;27.33;;;;;;;;5099653;27;47524;-50
2021/12/26 00:31:56;;;;;;;;;33.00;30.50;;;;;;;;5098460;27;45320;-49
2021/12/26 00:34:21;;;;;;;;;29.67;26.67;;;;;;;;5099817;27;45586;-51
2021/12/26 00:36:47;;;;;;;;;28.00;24.67;;;;;;;;5098786;27;45513;-48
2021/12/26 00:39:12;;;;;;;;;29.00;26.00;;;;;;;;5099181;27;46585;-49
2021/12/26 00:41:39;;;;;;;;;28.67;27.00;;;;;;;;5098860;27;45334;-52
2021/12/26 00:44:05;;;;;;;;;29.25;26.75;;;;;;;;5098809;27;45404;-48
2021/12/26 00:46:30;;;;;;;;;30.00;25.67;;;;;;;;5099700;27;45441;-53
2021/12/26 00:48:55;;;;;;;;;25.00;22.67;;;;;;;;5099498;27;45395;-48
2021/12/26 00:51:20;;;;;;;;;25.33;24.00;;;;;;;;5099357;27;45436;-48
2021/12/26 00:53:46;;;;;;;;;24.00;21.00;;;;;;;;5099918;27;45390;-50
2021/12/26 00:56:11;;;;;;;;;25.00;24.00;;;;;;;;5099803;27;45343;-53
2021/12/26 00:58:36;;;;;;;;;21.33;20.33;;;;;;;;5099335;27;45340;-49
2021/12/26 01:01:01;;;;;;;;;26.00;24.33;;;;;;;;5099100;27;45388;-49
2021/12/26 01:03:27;;;;;;;;;29.33;29.33;;;;;;;;5099853;27;45626;-50
2021/12/26 01:05:54;;;;;;;;;29.00;26.67;;;;;;;;5098633;27;45369;-51
2021/12/26 01:08:20;;;;;;;;;24.33;24.33;;;;;;;;5096420;27;45512;-50
2021/12/26 01:10:51;;;;;;;;;30.67;28.00;;;;;;;;5098716;27;45522;-52
2021/12/26 01:13:36;;;;;;;;;26.67;24.33;;;;;;;;5097709;27;45339;-52
2021/12/26 01:16:03;;;;;;;;;29.33;27.67;;;;;;;;5097158;27;45255;-49
2021/12/26 01:18:31;;;;;;;;;33.33;25.33;;;;;;;;5096896;27;46684;-49
2021/12/26 01:21:15;;;;;;;;;29.33;24.67;;;;;;;;5098225;27;45401;-46
2021/12/26 01:23:40;;;;;;;;;32.33;27.33;;;;;;;;5084452;27;45412;-51
2021/12/26 01:26:05;;;;;;;;;30.33;25.00;;;;;;;;5094527;27;45538;-50
2021/12/26 01:28:32;;;;;;;;;25.00;22.67;;;;;;;;5097545;27;46218;-50
2021/12/26 01:30:57;;;;;;;;;27.00;24.33;;;;;;;;5095534;27;45529;-48
2021/12/26 01:33:22;;;;;;;;;27.67;26.00;;;;;;;;5096211;27;45462;-49
2021/12/26 01:35:48;;;;;;;;;26.33;25.67;;;;;;;;5097835;27;45440;-49
2021/12/26 01:38:14;;;;;;;;;28.33;27.67;;;;;;;;5097435;27;46011;-51
2021/12/26 01:40:57;;;;;;;;;30.67;28.00;;;;;;;;5096747;27;45568;-51
2021/12/26 01:43:24;;;;;;;;;29.00;24.67;;;;;;;;5077278;28;45368;-53
2021/12/26 01:45:50;;;;;;;;;29.33;28.00;;;;;;;;5076551;27;45369;-50
2021/12/26 01:48:16;;;;;;;;;26.33;24.33;;;;;;;;5089627;27;46403;-49
2021/12/26 01:50:43;;;;;;;;;24.67;24.67;;;;;;;;5096216;27;45760;-49
2021/12/26 01:53:09;;;;;;;;;34.00;29.33;;;;;;;;5097854;27;45264;-48
2021/12/26 01:55:43;;;;;;;;;27.33;25.67;;;;;;;;5095455;27;45472;-46
2021/12/26 01:58:17;;;;;;;;;32.33;24.33;;;;;;;;5095667;27;45429;-48
2021/12/26 02:00:44;;;;;;;;;24.33;23.00;;;;;;;;5097247;27;45278;-46
2021/12/26 02:03:09;;;;;;;;;28.33;24.00;;;;;;;;5097582;27;45257;-51
2021/12/26 02:05:34;;;;;;;;;24.67;24.00;;;;;;;;5097266;27;45309;-50
2021/12/26 02:08:00;;;;;;;;;29.67;26.67;;;;;;;;5095460;27;46639;-48
2021/12/26 02:10:25;;;;;;;;;27.67;26.33;;;;;;;;5096310;27;45488;-47
2021/12/26 02:12:50;;;;;;;;;26.25;23.75;;;;;;;;5048327;27;1370785;-52
2021/12/26 02:15:16;;;;;;;;;27.67;23.33;;;;;;;;5096742;27;45347;-48
2021/12/26 02:17:41;;;;;;;;;28.00;28.00;;;;;;;;5097248;27;45421;-51
2021/12/26 02:20:37;;;;;;;;;31.00;25.67;;;;;;;;5097339;27;45423;-49
2021/12/26 02:23:10;;;;;;;;;28.00;24.67;;;;;;;;5077966;27;45379;-49
2021/12/26 02:28:11;;;;;;;;;28.33;27.00;;;;;;;;5097737;27;46187;-49
2021/12/26 02:30:36;;;;;;;;;28.33;28.00;;;;;;;;5098035;27;45361;-50
2021/12/26 02:33:04;;;;;;;;;32.25;29.25;;;;;;;;5098607;27;45791;-49
2021/12/26 02:35:29;;;;;;;;;31.33;31.33;;;;;;;;5096801;27;45305;-47
2021/12/26 02:37:54;;;;;;;;;27.67;27.00;;;;;;;;5096933;27;45591;-51
2021/12/26 02:40:20;;;;;;;;;27.67;26.67;;;;;;;;5096445;27;45306;-51
2021/12/26 02:42:45;;;;;;;;;27.00;27.00;;;;;;;;5096989;27;45316;-46
2021/12/26 02:45:11;;;;;;;;;25.67;23.67;;;;;;;;5098180;27;45293;-49
2021/12/26 02:47:38;;;;;;;;;29.75;28.00;;;;;;;;5096803;27;46149;-49
2021/12/26 02:50:06;;;;;;;;;26.33;24.00;;;;;;;;5096665;27;45520;-49
2021/12/26 02:52:31;;;;;;;;;23.00;23.00;;;;;;;;5096445;27;45367;-48
2021/12/26 02:55:00;;;;;;;;;27.33;25.67;;;;;;;;5095627;27;45317;-50
2021/12/26 02:57:26;;;;;;;;;25.67;24.33;;;;;;;;5096551;27;46548;-49
2021/12/26 02:59:51;;;;;;;;;27.67;25.67;;;;;;;;5097681;27;45256;-48
2021/12/26 03:02:16;;;;;;;;;31.00;27.75;;;;;;;;5097467;27;45351;-50
2021/12/26 03:04:41;;;;;;;;;31.00;31.00;;;;;;;;5096239;27;45524;-49
2021/12/26 03:07:07;;;;;;;;;35.25;30.25;;;;;;;;5096106;27;45479;-50
2021/12/26 03:09:40;;;;;;;;;36.50;31.75;;;;;;;;5097659;27;45304;-52
2021/12/26 03:12:06;;;;;;;;;26.67;26.00;;;;;;;;5096502;27;45432;-49
2021/12/26 03:14:31;;;;;;;;;28.67;28.67;;;;;;;;5096093;27;45533;-46
2021/12/26 03:17:00;;;;;;;;;27.33;27.00;;;;;;;;5097633;27;45789;-47
2021/12/26 03:19:25;;;;;;;;;26.67;23.67;;;;;;;;5097586;27;45315;-48
2021/12/26 03:21:51;;;;;;;;;28.75;28.25;;;;;;;;5096537;27;45325;-49
2021/12/26 03:24:16;;;;;;;;;30.67;27.33;;;;;;;;5097010;27;45343;-51
2021/12/26 03:26:41;;;;;;;;;31.67;28.00;;;;;;;;5095942;27;45476;-49
2021/12/26 03:29:06;;;;;;;;;37.33;29.33;;;;;;;;5095975;27;45374;-49
2021/12/26 03:31:31;;;;;;;;;32.00;30.00;;;;;;;;5097467;27;45314;-50
2021/12/26 03:33:57;;;;;;;;;28.00;28.00;;;;;;;;5096189;27;45202;-49
2021/12/26 03:36:22;;;;;;;;;32.33;29.67;;;;;;;;5096935;27;45942;-49
2021/12/26 03:38:47;;;;;;;;;32.00;31.67;;;;;;;;5097017;27;45382;-50
2021/12/26 03:41:13;;;;;;;;;26.33;26.33;;;;;;;;5096096;27;45348;-47
2021/12/26 03:43:38;;;;;;;;;29.67;28.33;;;;;;;;5096960;27;45164;-47
2021/12/26 03:46:03;;;;;;;;;31.00;27.67;;;;;;;;5094993;27;46449;-48
2021/12/26 03:48:28;;;;;;;;;34.33;31.67;;;;;;;;5097208;27;45301;-49
2021/12/26 03:50:55;;;;;;;;;36.33;33.33;;;;;;;;5097104;27;45225;-49
2021/12/26 03:53:20;;;;;;;;;32.67;31.33;;;;;;;;5097180;27;45420;-50
2021/12/26 03:55:46;;;;;;;;;28.00;25.67;;;;;;;;5093889;27;46229;-51
2021/12/26 03:58:12;;;;;;;;;30.00;27.00;;;;;;;;5094896;27;45390;-50
2021/12/26 04:00:37;;;;;;;;;30.75;28.75;;;;;;;;5097120;27;45292;-50
2021/12/26 04:03:02;;;;;;;;;26.33;26.33;;;;;;;;5095682;27;45630;-51
2021/12/26 04:05:28;;;;;;;;;29.67;29.33;;;;;;;;5095889;27;45398;-50
2021/12/26 04:07:53;;;;;;;;;29.67;29.67;;;;;;;;5096579;27;45502;-49
2021/12/26 04:10:19;;;;;;;;;28.67;28.00;;;;;;;;5095533;27;45596;-49
2021/12/26 04:12:48;;;;;;;;;29.33;27.33;;;;;;;;5096739;27;45334;-49
2021/12/26 04:15:15;;;;;;;;;31.67;31.67;;;;;;;;5096721;27;46104;-49
2021/12/26 04:17:41;;;;;;;;;31.00;27.67;;;;;;;;5096500;27;45311;-50
2021/12/26 04:20:07;;;;;;;;;26.33;25.33;;;;;;;;5095991;27;45237;-48
2021/12/26 04:22:32;;;;;;;;;29.75;28.75;;;;;;;;5095089;27;45250;-47
2021/12/26 04:24:57;;;;;;;;;31.67;28.67;;;;;;;;5096117;27;45491;-48
2021/12/26 04:27:24;;;;;;;;;34.00;30.00;;;;;;;;5095620;27;45396;-49
2021/12/26 04:29:49;;;;;;;;;30.50;28.75;;;;;;;;5095833;27;45425;-48
2021/12/26 04:32:15;;;;;;;;;31.67;28.67;;;;;;;;5096554;27;45169;-48
2021/12/26 04:34:40;;;;;;;;;31.50;31.50;;;;;;;;5096314;27;45486;-50
2021/12/26 04:37:05;;;;;;;;;36.50;32.75;;;;;;;;5095554;27;45294;-49
2021/12/26 04:39:30;;;;;;;;;32.50;29.50;;;;;;;;5095089;27;45200;-51
2021/12/26 04:41:56;;;;;;;;;31.00;28.67;;;;;;;;5094910;27;45614;-48
2021/12/26 04:44:24;;;;;;;;;30.33;28.67;;;;;;;;5095821;27;46328;-49
2021/12/26 04:46:49;;;;;;;;;26.75;26.75;;;;;;;;5096401;27;45489;-49
2021/12/26 04:49:14;;;;;;;;;35.50;34.00;;;;;;;;5095122;27;45423;-48
2021/12/26 04:51:40;;;;;;;;;34.00;33.00;;;;;;;;5094554;27;45490;-53
2021/12/26 04:54:05;;;;;;;;;30.50;28.00;;;;;;;;5096199;27;46059;-51
2021/12/26 04:56:30;;;;;;;;;34.25;31.75;;;;;;;;5096149;27;45432;-47
2021/12/26 04:58:55;;;;;;;;;38.33;34.00;;;;;;;;5096008;27;45506;-49
2021/12/26 05:01:21;;;;;;;;;30.00;26.67;;;;;;;;5096046;27;45600;-51
2021/12/26 05:03:46;;;;;;;;;34.50;29.50;;;;;;;;5097242;27;46455;-51
2021/12/26 05:06:11;;;;;;;;;30.33;26.33;;;;;;;;5099521;27;45444;-51
2021/12/26 05:08:36;;;;;;;;;17.00;16.50;;;;;;;;5099240;27;45393;-52
2021/12/26 05:11:02;;;;;;;;;29.50;29.50;;;;;;;;5098707;27;45314;-50
2021/12/26 05:13:27;;;;;;;;;31.00;27.50;;;;;;;;5097557;27;45563;-50
2021/12/26 05:15:52;;;;;;;;;32.00;30.50;;;;;;;;5097947;27;45483;-50
2021/12/26 05:18:17;;;;;;;;;32.75;29.75;;;;;;;;5097565;27;45409;-51
2021/12/26 05:20:44;;;;;;;;;25.33;25.00;;;;;;;;5097692;27;45672;-51
2021/12/26 05:23:09;;;;;;;;;29.33;27.67;;;;;;;;5098784;27;45440;-48
2021/12/26 05:25:34;;;;;;;;;27.25;26.00;;;;;;;;5098556;27;45368;-49
2021/12/26 05:27:59;;;;;;;;;31.00;27.50;;;;;;;;5098185;27;45494;-49
2021/12/26 05:30:25;;;;;;;;;25.25;25.00;;;;;;;;5097934;27;45506;-48
2021/12/26 05:32:51;;;;;;;;;30.75;28.50;;;;;;;;5097904;27;46053;-50
2021/12/26 05:35:17;;;;;;;;;27.00;26.00;;;;;;;;5098258;27;45271;-50
2021/12/26 05:37:42;;;;;;;;;28.67;24.67;;;;;;;;5098085;27;45281;-49
2021/12/26 05:40:09;;;;;;;;;27.67;26.67;;;;;;;;5099029;27;45373;-48
2021/12/26 05:42:34;;;;;;;;;30.00;28.67;;;;;;;;5097309;27;45532;-50
2021/12/26 05:44:59;;;;;;;;;24.00;23.67;;;;;;;;5097513;27;45409;-52
2021/12/26 05:47:27;;;;;;;;;26.67;25.33;;;;;;;;5098455;27;45470;-52
2021/12/26 05:49:52;;;;;;;;;31.00;28.33;;;;;;;;5099079;27;45622;-50
2021/12/26 05:52:20;;;;;;;;;24.00;23.67;;;;;;;;5098818;27;46412;-49
2021/12/26 05:54:46;;;;;;;;;27.00;22.33;;;;;;;;5097360;27;45548;-52
2021/12/26 05:57:12;;;;;;;;;26.67;24.00;;;;;;;;5098403;27;45299;-48
2021/12/26 05:59:37;;;;;;;;;23.67;22.00;;;;;;;;5098612;27;45171;-50
2021/12/26 06:02:02;;;;;;;;;29.67;24.00;;;;;;;;5097725;27;45543;-52
2021/12/26 06:04:28;;;;;;;;;27.67;26.33;;;;;;;;5098606;27;45324;-50
2021/12/26 06:06:54;;;;;;;;;26.00;26.00;;;;;;;;5098759;27;45253;-50
2021/12/26 06:09:19;;;;;;;;;27.67;26.67;;;;;;;;5098264;27;45470;-51
2021/12/26 06:11:44;;;;;;;;;24.00;23.67;;;;;;;;5098435;27;45496;-49
2021/12/26 06:14:10;;;;;;;;;27.67;24.33;;;;;;;;5095531;27;45412;-52
2021/12/26 06:16:35;;;;;;;;;24.33;20.67;;;;;;;;5097094;27;45308;-49
2021/12/26 06:19:00;;;;;;;;;29.33;26.33;;;;;;;;5098395;27;45357;-49
2021/12/26 06:21:25;;;;;;;;;20.67;20.00;;;;;;;;5095125;27;45784;-51
2021/12/26 06:23:51;;;;;;;;;26.33;22.00;;;;;;;;5098295;27;45317;-51
2021/12/26 06:26:17;;;;;;;;;20.33;19.33;;;;;;;;5093896;27;45470;-52
2021/12/26 06:28:42;;;;;;;;;27.67;23.67;;;;;;;;5096977;27;45613;-52
2021/12/26 06:31:07;;;;;;;;;20.33;20.33;;;;;;;;5096527;27;45490;-49
2021/12/26 06:33:32;;;;;;;;;21.33;21.00;;;;;;;;5098225;27;45265;-50
2021/12/26 06:35:57;;;;;;;;;21.00;21.00;;;;;;;;5097317;27;45443;-52
2021/12/26 06:38:22;;;;;;;;;23.67;21.67;;;;;;;;5098224;27;45255;-48
2021/12/26 06:40:48;;;;;;;;;22.00;19.33;;;;;;;;5097063;27;45511;-49
2021/12/26 06:43:13;;;;;;;;;19.67;19.00;;;;;;;;5097211;27;45405;-49
2021/12/26 06:45:38;;;;;;;;;21.67;21.67;;;;;;;;5097265;27;45288;-48
2021/12/26 06:48:06;;;;;;;;;20.67;20.00;;;;;;;;5097025;27;45305;-49
2021/12/26 06:50:31;;;;;;;;;21.00;20.00;;;;;;;;5096142;27;45870;-46
2021/12/26 06:52:57;;;;;;;;;18.00;16.00;;;;;;;;5097382;27;45365;-51
2021/12/26 06:55:22;;;;;;;;;27.33;22.33;;;;;;;;5096927;27;45288;-49
2021/12/26 06:57:47;;;;;;;;;21.00;19.00;;;;;;;;5096771;27;45552;-46
2021/12/26 07:00:14;;;;;;;;;22.00;19.00;;;;;;;;5096859;27;46279;-49
2021/12/26 07:02:39;;;;;;;;;20.00;20.00;;;;;;;;5097407;27;45401;-49
2021/12/26 07:05:04;;;;;;;;;20.00;20.00;;;;;;;;5096316;27;45336;-52
2021/12/26 07:07:29;;;;;;;;;21.67;19.67;;;;;;;;5096535;27;45320;-50
2021/12/26 07:09:55;;;;;;;;;23.00;20.33;;;;;;;;5096394;27;45470;-50
2021/12/26 07:12:20;;;;;;;;;23.00;22.33;;;;;;;;5097304;27;45609;-50
2021/12/26 07:14:45;;;;;;;;;21.00;19.67;;;;;;;;5097169;27;45401;-48
2021/12/26 07:17:10;;;;;;;;;22.67;22.67;;;;;;;;5095611;27;45593;-49
2021/12/26 07:19:39;;;;;;;;;21.67;21.67;;;;;;;;5097371;27;45390;-49
2021/12/26 07:22:04;;;;;;;;;21.00;20.00;;;;;;;;5097303;27;45321;-47
2021/12/26 07:24:30;;;;;;;;;23.67;21.00;;;;;;;;5096425;27;45248;-50
2021/12/26 07:26:55;;;;;;;;;21.33;21.33;;;;;;;;5096298;27;45242;-49
2021/12/26 07:29:20;;;;;;;;;22.67;21.00;;;;;;;;5095485;27;46573;-50
2021/12/26 07:31:45;;;;;;;;;26.33;21.67;;;;;;;;5097237;27;45383;-53
2021/12/26 07:34:11;;;;;;;;;24.67;20.00;;;;;;;;5096339;27;45360;-50
2021/12/26 07:36:36;;;;;;;;;21.33;20.33;;;;;;;;5096313;27;45481;-51
2021/12/26 07:39:02;;;;;;;;;24.67;22.33;;;;;;;;5095970;27;45475;-48
2021/12/26 07:41:28;;;;;;;;;27.33;26.00;;;;;;;;5095970;27;46202;-49
2021/12/26 07:43:53;;;;;;;;;28.33;24.33;;;;;;;;5093358;27;45996;-51
2021/12/26 07:46:18;;;;;;;;;27.33;22.33;;;;;;;;5095627;27;45714;-52
2021/12/26 07:48:44;;;;;;;;;26.33;20.67;;;;;;;;5093654;27;46682;-49
2021/12/26 07:51:09;;;;;;;;;24.00;21.67;;;;;;;;5095670;27;45370;-50
2021/12/26 07:53:34;;;;;;;;;25.00;25.00;;;;;;;;5097198;27;45280;-51
2021/12/26 07:56:00;;;;;;;;;27.33;23.33;;;;;;;;5096286;27;45607;-51
2021/12/26 07:58:25;;;;;;;;;33.67;27.67;;;;;;;;5095904;27;46222;-51
2021/12/26 08:00:51;;;;;;;;;26.33;25.33;;;;;;;;5096823;27;45303;-52
2021/12/26 08:03:16;;;;;;;;;26.33;22.00;;;;;;;;5095970;27;45558;-50
2021/12/26 08:05:41;;;;;;;;;23.00;23.00;;;;;;;;5093977;27;45475;-48
2021/12/26 08:08:06;;;;;;;;;22.00;22.00;;;;;;;;5094430;27;45467;-51
2021/12/26 08:10:31;;;;;;;;;25.33;23.00;;;;;;;;5094808;27;45416;-48
2021/12/26 08:12:57;;;;;;;;;24.00;22.33;;;;;;;;5096701;27;45224;-48
2021/12/26 08:15:22;;;;;;;;;26.33;23.33;;;;;;;;5095853;27;45409;-48
2021/12/26 08:17:47;;;;;;;;;29.67;23.33;;;;;;;;5096476;27;46038;-46
2021/12/26 08:20:13;;;;;;;;;25.33;22.67;;;;;;;;5096255;27;45428;-53
2021/12/26 08:22:38;;;;;;;;;29.00;28.33;;;;;;;;5095382;27;45500;-51
2021/12/26 08:25:03;;;;;;;;;24.00;22.00;;;;;;;;5095634;27;45317;-49
2021/12/26 08:27:29;;;;;;;;;27.33;22.00;;;;;;;;5095974;27;46810;-52
2021/12/26 08:29:54;;;;;;;;;24.00;22.00;;;;;;;;5095941;27;45433;-52
2021/12/26 08:32:19;;;;;;;;;21.00;20.33;;;;;;;;5094125;27;45257;-46
2021/12/26 08:34:45;;;;;;;;;26.67;23.33;;;;;;;;5089242;27;45570;-49
2021/12/26 08:37:11;;;;;;;;;19.67;18.67;;;;;;;;5095278;27;45933;-49
2021/12/26 08:39:38;;;;;;;;;33.33;27.67;;;;;;;;5098110;27;45382;-50
2021/12/26 08:42:05;;;;;;;;;27.33;25.33;;;;;;;;5098452;27;45325;-52
2021/12/26 08:44:30;;;;;;;;;24.00;22.33;;;;;;;;5099587;27;45377;-48
2021/12/26 08:46:55;;;;;;;;;28.33;27.67;;;;;;;;5099593;27;46563;-53
2021/12/26 08:49:21;;;;;;;;;23.00;22.00;;;;;;;;5098978;27;45498;-48
2021/12/26 08:51:46;;;;;;;;;28.67;24.33;;;;;;;;5098727;27;45434;-55
2021/12/26 08:54:12;;;;;;;;;24.00;23.00;;;;;;;;5099046;27;45277;-50
2021/12/26 08:56:37;;;;;;;;;25.33;24.00;;;;;;;;5099670;27;45415;-50
2021/12/26 08:59:03;;;;;;;;;24.33;24.33;;;;;;;;5099780;27;45354;-54
2021/12/26 09:01:28;;;;;;;;;24.00;20.00;;;;;;;;5099710;27;45336;-55
2021/12/26 09:03:53;;;;;;;;;20.67;18.67;;;;;;;;5098041;27;45552;-49
2021/12/26 09:06:19;;;;;;;;;24.33;21.33;;;;;;;;5098315;27;45401;-48
2021/12/26 09:08:44;;;;;;;;;25.67;22.33;;;;;;;;5098074;27;45322;-52
2021/12/26 09:11:09;;;;;;;;;24.33;23.00;;;;;;;;5097335;27;45745;-48
2021/12/26 09:13:35;;;;;;;;;23.00;20.00;;;;;;;;5099654;27;45290;-54
2021/12/26 09:16:01;;;;;;;;;23.00;20.50;;;;;;;;5098418;27;45952;-46
2021/12/26 09:18:26;;;;;;;;;19.67;19.33;;;;;;;;5099486;27;45248;-47
2021/12/26 09:20:51;;;;;;;;;22.67;22.00;;;;;;;;5098722;27;45230;-48
2021/12/26 09:23:17;;;;;;;;;23.33;22.00;;;;;;;;5099130;27;45647;-48
2021/12/26 09:25:42;;;;;;;;;24.33;23.00;;;;;;;;5097350;27;45610;-50
2021/12/26 09:28:07;;;;;;;;;24.67;22.33;;;;;;;;5098318;27;45157;-46
2021/12/26 09:30:32;;;;;;;;;23.00;21.00;;;;;;;;5098546;27;45300;-45
2021/12/26 09:32:58;;;;;;;;;18.00;18.00;;;;;;;;5099137;27;45210;-54
2021/12/26 09:35:23;;;;;;;;;24.00;18.33;;;;;;;;5098785;27;46190;-52
2021/12/26 09:37:48;;;;;;;;;21.67;20.00;;;;;;;;5098208;27;45901;-50
2021/12/26 09:40:14;;;;;;;;;22.67;21.67;;;;;;;;5098533;27;45509;-51
2021/12/26 09:42:39;;;;;;;;;21.00;21.00;;;;;;;;5099144;27;45543;-51
2021/12/26 09:45:06;;;;;;;;;25.33;20.00;;;;;;;;5098960;27;46474;-48
2021/12/26 09:47:31;;;;;;;;;22.00;17.33;;;;;;;;5097438;27;45456;-48
2021/12/26 09:49:56;;;;;;;;;17.33;16.00;;;;;;;;5093895;27;45512;-52
2021/12/26 09:52:22;;;;;;;;;15.33;12.67;;;;;;;;5098591;27;45324;-52
2021/12/26 09:54:47;;;;;;;;;18.33;17.33;;;;;;;;5097987;27;46254;-51
2021/12/26 09:57:13;;;;;;;;;20.00;19.67;;;;;;;;5093263;27;45530;-52
2021/12/26 09:59:38;;;;;;;;;20.33;18.67;;;;;;;;5092353;27;45456;-53
2021/12/26 10:02:08;;;;;;;;;0.33;0.00;;;;;;;;5097319;27;45454;-52
2021/12/26 10:04:34;;;;;;;;;19.00;17.00;;;;;;;;5097909;27;45500;-52
2021/12/26 10:07:04;;;;;;;;;25.00;20.33;;;;;;;;5098790;27;45433;-52
2021/12/26 10:09:29;;;;;;;;;19.33;18.33;;;;;;;;5098685;27;45444;-53
2021/12/26 10:11:56;;;;;;;;;19.33;17.00;;;;;;;;5098054;27;45289;-47
2021/12/26 10:14:23;;;;;;;;;19.33;18.00;;;;;;;;5097928;27;46354;-50
2021/12/26 10:19:23;;;;;;;;;21.00;17.00;;;;;;;;5083292;22;45558;-65
2021/12/26 10:21:50;;;;;;;;;19.00;17.33;;;;;;;;4976117;28;45726;-65
2021/12/26 10:24:18;;;;;;;;;22.00;18.67;;;;;;;;4994909;28;45496;-65
2021/12/26 10:26:48;;;;;;;;;17.00;15.33;;;;;;;;4978985;28;45360;-64
2021/12/26 10:29:18;;;;;;;;;20.00;17.67;;;;;;;;4976578;28;45404;-63
2021/12/26 10:31:45;;;;;;;;;19.00;17.50;;;;;;;;4980121;28;45740;-62
2021/12/26 10:34:14;;;;;;;;;17.33;16.00;;;;;;;;4974191;28;45498;-60
2021/12/26 10:36:43;;;;;;;;;14.67;14.67;;;;;;;;4976561;28;45431;-61
2021/12/26 10:39:12;;;;;;;;;16.00;14.67;;;;;;;;4976704;28;45388;-61
2021/12/26 10:41:45;;;;;;;;;15.00;14.00;;;;;;;;4976401;28;45261;-60
2021/12/26 10:44:20;;;;;;;;;16.33;16.33;;;;;;;;4974408;28;47282;-60
2021/12/26 10:46:47;;;;;;;;;20.67;18.67;;;;;;;;4977733;28;45410;-61
2021/12/26 10:49:26;;;;;;;;;20.00;16.33;;;;;;;;4977671;28;45346;-61
2021/12/26 10:51:51;;;;;;;;;14.00;14.00;;;;;;;;4977830;28;45455;-61
2021/12/26 10:54:18;;;;;;;;;22.00;20.33;;;;;;;;4977028;28;45935;-61
2021/12/26 10:57:03;;;;;;;;;17.00;17.00;;;;;;;;4977612;28;45364;-61
2021/12/26 10:59:29;;;;;;;;;16.67;15.33;;;;;;;;4976260;28;45455;-61
2021/12/26 11:01:56;;;;;;;;;18.33;17.33;;;;;;;;4976844;28;45296;-61
2021/12/26 11:04:21;;;;;;;;;16.67;15.67;;;;;;;;4976130;28;46157;-61
2021/12/26 11:06:57;;;;;;;;;17.00;15.33;;;;;;;;4976814;28;45269;-61
2021/12/26 11:09:22;;;;;;;;;17.00;15.33;;;;;;;;4974608;28;45381;-61
2021/12/26 11:11:59;;;;;;;;;15.67;14.33;;;;;;;;4975924;28;45478;-61
2021/12/26 11:14:25;;;;;;;;;16.33;11.00;;;;;;;;4977301;28;46074;-61
2021/12/26 11:16:50;;;;;;;;;15.67;13.67;;;;;;;;4975554;28;45281;-60
2021/12/26 11:19:15;;;;;;;;;8.00;8.00;;;;;;;;4976254;28;45428;-59
2021/12/26 11:21:41;;;;;;;;;11.00;11.00;;;;;;;;4977068;28;45310;-58
2021/12/26 11:24:07;;;;;;;;;6.67;6.33;;;;;;;;4976822;28;45391;-58
2021/12/26 11:26:32;;;;;;;;;10.50;9.00;;;;;;;;4975758;28;45373;-57
2021/12/26 11:28:57;;;;;;;;;6.33;6.33;;;;;;;;4976399;28;45265;-58
2021/12/26 11:31:24;;;;;;;;;6.33;6.33;;;;;;;;4975419;28;45462;-58
2021/12/26 11:33:54;;;;;;;;;9.33;8.00;;;;;;;;4976795;28;45495;-57
2021/12/26 11:36:20;;;;;;;;;8.67;4.33;;;;;;;;4976579;28;45377;-59
2021/12/26 11:38:47;;;;;;;;;7.33;7.00;;;;;;;;4975147;28;45481;-58
2021/12/26 11:41:31;;;;;;;;;10.00;9.00;;;;;;;;4974559;28;45364;-58
2021/12/26 11:43:56;;;;;;;;;8.00;8.00;;;;;;;;4974865;28;45279;-57
2021/12/26 11:46:40;;;;;;;;;7.00;6.25;;;;;;;;4976058;28;45505;-57
2021/12/26 11:49:26;;;;;;;;;7.33;5.00;;;;;;;;4976481;28;45204;-51
2021/12/26 11:51:54;;;;;;;;;5.00;5.00;;;;;;;;4977029;28;45324;-51
2021/12/26 11:54:19;;;;;;;;;3.00;3.00;;;;;;;;4976796;28;45380;-51
2021/12/26 11:56:53;;;;;;;;;4.00;3.00;;;;;;;;4975698;28;45535;-54
2021/12/26 11:59:28;;;;;;;;;6.33;3.67;;;;;;;;4976262;28;45418;-54
2021/12/26 12:01:53;;;;;;;;;2.00;2.00;;;;;;;;4975739;28;45478;-51
2021/12/26 12:04:23;;;;;;;;;2.33;2.33;;;;;;;;4975397;28;45492;-50
2021/12/26 12:06:52;;;;;;;;;3.33;3.33;;;;;;;;4975856;28;45511;-51
2021/12/26 12:09:34;;;;;;;;;2.00;2.00;;;;;;;;4975032;28;45572;-52
2021/12/26 12:12:10;;;;;;;;;2.00;2.00;;;;;;;;4974119;28;45360;-47
2021/12/26 12:14:44;;;;;;;;;2.33;2.33;;;;;;;;4979399;28;45253;-57
2021/12/26 12:17:15;;;;;;;;;3.00;3.00;;;;;;;;4978120;28;45384;-49
2021/12/26 12:19:59;;;;;;;;;3.67;3.00;;;;;;;;4978179;28;45314;-49
2021/12/26 12:22:25;;;;;;;;;1.33;1.33;;;;;;;;4979560;28;45603;-48
2021/12/26 12:24:51;;;;;;;;;3.67;2.00;;;;;;;;4979461;28;46027;-52
2021/12/26 12:27:18;;;;;;;;;2.00;2.00;;;;;;;;4978722;28;45316;-47
2021/12/26 12:29:45;;;;;;;;;1.00;1.00;;;;;;;;4980245;28;45434;-49
2021/12/26 12:32:12;;;;;;;;;2.00;2.00;;;;;;;;4980066;28;45225;-50
2021/12/26 12:34:52;;;;;;;;;1.00;1.00;;;;;;;;4979239;28;45332;-51
2021/12/26 12:37:40;;;;;;;;;1.00;1.00;;;;;;;;4958976;28;45330;-50
2021/12/26 12:40:17;;;;;;;;;1.33;1.33;;;;;;;;4958973;28;45395;-52
2021/12/26 12:43:01;;;;;;;;;1.00;1.00;;;;;;;;4976372;28;45496;-52
2021/12/26 12:45:27;;;;;;;;;1.33;1.33;;;;;;;;4981997;28;46071;-48
2021/12/26 12:48:10;;;;;;;;;2.00;2.00;;;;;;;;4978935;28;45272;-51
2021/12/26 12:50:36;;;;;;;;;1.67;1.67;;;;;;;;4977543;28;45327;-53
2021/12/26 12:53:01;;;;;;;;;4.00;1.67;;;;;;;;4977593;28;45458;-51
2021/12/26 12:55:52;;;;;;;;;1.00;1.00;;;;;;;;4979759;28;45417;-52
2021/12/26 12:58:21;;;;;;;;;3.00;3.00;;;;;;;;4978439;28;45314;-51
2021/12/26 13:00:47;;;;;;;;;3.00;1.33;;;;;;;;4983189;28;45572;-52
2021/12/26 13:03:14;;;;;;;;;1.67;1.67;;;;;;;;4993271;28;45439;-52
2021/12/26 13:05:39;;;;;;;;;1.67;1.67;;;;;;;;4988887;28;46019;-53
2021/12/26 13:08:06;;;;;;;;;2.67;2.67;;;;;;;;4978726;28;45372;-54
2021/12/26 13:10:32;;;;;;;;;3.00;3.00;;;;;;;;4980295;28;45456;-51
2021/12/26 13:13:07;;;;;;;;;2.33;2.33;;;;;;;;4981042;28;45230;-52
2021/12/26 13:15:33;;;;;;;;;29.00;26.67;;;;;;;;4977511;28;45376;-54
2021/12/26 13:18:03;;;;;;;;;4.00;4.00;;;;;;;;4978550;28;45477;-54
2021/12/26 13:20:29;;;;;;;;;1.67;1.67;;;;;;;;4979105;28;45315;-54
2021/12/26 13:22:56;;;;;;;;;2.33;2.33;;;;;;;;4979131;28;45544;-53
2021/12/26 13:25:27;;;;;;;;;1.33;1.33;;;;;;;;4978284;28;46139;-53
2021/12/26 13:27:53;;;;;;;;;1.00;1.00;;;;;;;;4978828;28;45445;-55
2021/12/26 13:30:20;;;;;;;;;2.33;1.67;;;;;;;;4978447;28;45326;-53
2021/12/26 13:32:46;;;;;;;;;2.00;2.00;;;;;;;;4979073;28;45595;-53
2021/12/26 13:35:11;;;;;;;;;2.00;2.00;;;;;;;;4977930;28;46235;-54
2021/12/26 13:37:37;;;;;;;;;4.00;2.00;;;;;;;;4978924;28;45369;-54
2021/12/26 13:40:05;;;;;;;;;2.00;2.00;;;;;;;;4978292;28;45402;-53
2021/12/26 13:42:31;;;;;;;;;2.00;2.00;;;;;;;;4979011;28;45425;-54
2021/12/26 13:44:56;;;;;;;;;3.00;3.00;;;;;;;;4978656;28;45396;-53
2021/12/26 13:47:22;;;;;;;;;1.00;1.00;;;;;;;;4977512;28;45411;-51
2021/12/26 13:49:47;;;;;;;;;2.00;1.67;;;;;;;;4978580;28;45461;-53
2021/12/26 13:52:17;;;;;;;;;3.00;1.67;;;;;;;;4978138;28;45587;-52
2021/12/26 13:54:49;;;;;;;;;4.00;4.00;;;;;;;;4978552;28;46175;-54
2021/12/26 13:57:17;;;;;;;;;1.00;1.00;;;;;;;;4978279;28;45450;-52
2021/12/26 13:59:52;;;;;;;;;0.67;0.67;;;;;;;;4978524;28;45376;-53
2021/12/26 14:02:19;;;;;;;;;3.00;2.00;;;;;;;;4977952;28;45587;-53
2021/12/26 14:04:46;;;;;;;;;2.00;1.00;;;;;;;;4978150;28;45479;-52
2021/12/26 14:07:14;;;;;;;;;2.00;2.00;;;;;;;;4978151;28;45519;-52
2021/12/26 14:09:40;;;;;;;;;0.67;0.67;;;;;;;;4978569;28;45336;-52
2021/12/26 14:12:06;;;;;;;;;1.00;1.00;;;;;;;;4977766;28;45521;-52
2021/12/26 14:14:35;;;;;;;;;1.00;1.00;;;;;;;;4977483;28;46126;-53
2021/12/26 14:17:08;;;;;;;;;2.00;2.00;;;;;;;;4977775;28;45428;-53
2021/12/26 14:19:33;;;;;;;;;1.00;1.00;;;;;;;;4977971;28;45440;-54
2021/12/26 14:21:58;;;;;;;;;2.00;2.00;;;;;;;;4978275;28;45356;-51
2021/12/26 14:24:24;;;;;;;;;1.00;1.00;;;;;;;;4977357;28;45323;-54
2021/12/26 14:26:53;;;;;;;;;2.67;1.67;;;;;;;;4978039;28;45407;-52